Time;durP1;ratioP1;P1;durP2;ratioP2;P2;SDS_P1;SDS_P2;PMS_P1;PMS_P2;Temp;Humidity;BMP_temperature;BMP_pressure;BME280_temperature;BME280_humidity;BME280_pressure;Samples;Min_cycle;Max_cycle;Signal;HPM_P1;HPM_P2
2023/08/30 00:01:44;;;;;;;3.88;2.30;;;;;;;20.76;74.21;100426.72;5030769;27;98753;-64
2023/08/30 00:04:11;;;;;;;6.93;2.78;;;;;;;20.55;74.69;100423.13;5024699;27;98329;-65
2023/08/30 00:06:38;;;;;;;3.35;1.67;;;;;;;20.26;74.70;100418.28;5029368;27;96800;-65
2023/08/30 00:09:04;;;;;;;5.82;2.20;;;;;;;20.29;74.61;100420.72;5020988;27;98917;-65
2023/08/30 00:11:32;;;;;;;2.92;1.95;;;;;;;20.06;74.56;100424.41;5029075;27;99000;-65
2023/08/30 00:14:03;;;;;;;3.60;2.00;;;;;;;20.07;75.33;100428.78;5024062;27;97198;-64
2023/08/30 00:16:30;;;;;;;4.35;2.05;;;;;;;19.96;75.95;100426.09;5027509;27;96759;-65
2023/08/30 00:18:56;;;;;;;1.90;1.70;;;;;;;19.92;75.32;100421.97;5024703;27;99692;-63
2023/08/30 00:21:22;;;;;;;2.67;1.63;;;;;;;19.99;75.59;100417.81;5023406;27;98852;-65
2023/08/30 00:23:49;;;;;;;3.47;1.73;;;;;;;19.87;75.09;100416.13;5021736;27;97289;-65
2023/08/30 00:26:15;;;;;;;2.67;1.70;;;;;;;19.83;75.40;100425.34;5025906;27;97949;-65
2023/08/30 00:28:43;;;;;;;7.20;1.83;;;;;;;19.40;77.53;100426.00;5029019;27;101622;-65
2023/08/30 00:31:09;;;;;;;2.40;1.65;;;;;;;19.72;76.07;100425.34;5028514;27;99395;-65
2023/08/30 00:33:36;;;;;;;5.30;1.70;;;;;;;19.64;77.16;100422.41;5026061;27;101359;-66
2023/08/30 00:36:02;;;;;;;4.32;1.88;;;;;;;19.61;77.58;100428.03;5025938;27;96927;-65
2023/08/30 00:38:29;;;;;;;6.85;1.63;;;;;;;19.75;76.85;100425.13;5022686;27;98942;-65
2023/08/30 00:40:56;;;;;;;1.80;1.55;;;;;;;19.81;76.37;100424.66;5028296;27;102129;-65
2023/08/30 00:43:22;;;;;;;2.50;1.80;;;;;;;19.77;76.62;100423.16;5022721;27;96753;-65
2023/08/30 00:45:50;;;;;;;2.22;1.80;;;;;;;19.74;76.62;100424.28;5028901;27;96839;-65
2023/08/30 00:48:20;;;;;;;2.45;1.60;;;;;;;19.93;76.61;100418.31;5027230;27;101798;-65
2023/08/30 00:50:46;;;;;;;2.08;1.52;;;;;;;19.71;76.64;100412.91;5026991;27;98829;-65
2023/08/30 00:53:13;;;;;;;3.85;1.85;;;;;;;19.54;77.17;100405.34;5023180;27;96894;-65
2023/08/30 00:55:40;;;;;;;3.00;1.98;;;;;;;19.62;77.23;100406.47;5027222;27;97320;-64
2023/08/30 00:58:08;;;;;;;2.53;1.80;;;;;;;19.50;77.43;100413.63;5026864;27;98912;-65
2023/08/30 01:00:35;;;;;;;2.20;1.95;;;;;;;19.72;76.26;100411.94;5029380;27;99131;-64
2023/08/30 01:03:06;;;;;;;3.00;1.90;;;;;;;19.66;76.84;100417.78;5025677;27;97164;-64
2023/08/30 01:05:32;;;;;;;3.38;1.70;;;;;;;19.74;76.68;100420.72;5020252;27;98793;-64
2023/08/30 01:07:59;;;;;;;1.90;1.70;;;;;;;19.82;77.10;100413.78;5023986;27;98234;-65
2023/08/30 01:10:34;;;;;;;2.95;1.77;;;;;;;19.74;76.19;100416.22;5027934;27;99656;-65
2023/08/30 01:13:07;;;;;;;4.65;2.00;;;;;;;19.61;77.13;100418.16;5023283;27;96984;-65
2023/08/30 01:15:35;;;;;;;4.68;2.25;;;;;;;19.67;77.64;100420.38;5024187;27;97959;-65
2023/08/30 01:18:06;;;;;;;3.70;1.90;;;;;;;19.75;76.54;100427.81;5021760;27;98270;-66
2023/08/30 01:20:36;;;;;;;1.98;1.63;;;;;;;19.58;77.15;100436.28;5023033;27;99223;-65
2023/08/30 01:23:09;;;;;;;2.88;1.80;;;;;;;19.48;77.88;100438.84;5025212;27;98741;-65
2023/08/30 01:25:46;;;;;;;2.97;1.98;;;;;;;19.64;77.16;100427.78;5022558;27;96865;-65
2023/08/30 01:28:17;;;;;;;3.47;2.08;;;;;;;19.42;78.09;100432.09;5022881;27;99031;-64
2023/08/30 01:30:45;;;;;;;2.00;1.70;;;;;;;19.61;77.22;100428.88;5024729;27;97950;-64
2023/08/30 01:33:14;;;;;;;2.00;1.85;;;;;;;19.63;76.65;100431.41;5027373;27;97597;-64
2023/08/30 01:35:41;;;;;;;4.20;1.92;;;;;;;19.57;77.52;100432.75;5022935;27;100934;-64
2023/08/30 01:38:09;;;;;;;3.13;1.98;;;;;;;19.60;77.57;100439.72;5020579;27;99262;-64
2023/08/30 01:40:39;;;;;;;1.63;1.52;;;;;;;19.39;77.51;100444.88;5023217;27;100891;-64
2023/08/30 01:43:07;;;;;;;3.88;2.15;;;;;;;19.55;76.59;100441.91;5013776;27;97155;-64
2023/08/30 01:45:37;;;;;;;2.25;2.00;;;;;;;19.76;75.70;100450.94;5019330;27;98186;-64
2023/08/30 01:48:05;;;;;;;4.03;2.30;;;;;;;19.40;76.97;100447.44;5015773;27;99308;-64
2023/08/30 01:50:33;;;;;;;3.05;2.13;;;;;;;19.45;77.15;100439.91;5024944;27;99451;-64
2023/08/30 01:53:00;;;;;;;2.05;1.73;;;;;;;19.49;76.43;100438.69;5027267;27;97176;-64
2023/08/30 01:55:29;;;;;;;2.38;2.00;;;;;;;19.40;76.72;100435.88;5026282;27;96845;-64
2023/08/30 01:57:55;;;;;;;4.45;1.70;;;;;;;19.69;75.74;100442.53;5025011;27;101717;-64
2023/08/30 02:00:21;;;;;;;2.42;1.85;;;;;;;19.78;75.19;100446.31;5017599;27;99265;-64
2023/08/30 02:02:49;;;;;;;5.60;1.88;;;;;;;19.94;74.11;100449.50;5024203;27;96887;-65
2023/08/30 02:05:16;;;;;;;3.40;1.55;;;;;;;19.97;73.88;100451.94;5024641;27;97004;-64
2023/08/30 02:07:51;;;;;;;2.47;1.98;;;;;;;20.18;72.69;100444.88;5021520;27;99036;-65
2023/08/30 02:10:23;;;;;;;2.33;1.90;;;;;;;19.86;73.29;100431.34;5022506;27;98857;-64
2023/08/30 02:12:53;;;;;;;2.78;1.90;;;;;;;19.70;73.58;100429.97;5024110;27;97372;-64
2023/08/30 02:15:20;;;;;;;3.30;2.38;;;;;;;19.49;74.55;100429.84;5022393;27;96918;-64
2023/08/30 02:17:48;;;;;;;2.28;1.95;;;;;;;19.37;75.19;100428.06;5020775;27;101059;-65
2023/08/30 02:20:17;;;;;;;2.75;1.67;;;;;;;19.28;75.77;100432.31;5022069;27;99435;-65
2023/08/30 02:22:43;;;;;;;4.05;2.20;;;;;;;19.27;75.65;100429.75;5022802;27;97948;-65
2023/08/30 02:25:10;;;;;;;3.28;1.70;;;;;;;19.19;76.18;100443.72;5017137;27;97457;-66
2023/08/30 02:27:37;;;;;;;6.07;2.00;;;;;;;19.18;76.00;100439.31;5023389;27;98888;-65
2023/08/30 02:30:04;;;;;;;2.13;1.50;;;;;;;19.15;75.80;100442.25;5021133;27;97744;-65
2023/08/30 02:32:30;;;;;;;3.53;1.98;;;;;;;19.22;75.80;100435.47;5015506;27;98176;-65
2023/08/30 02:34:57;;;;;;;2.22;1.70;;;;;;;19.45;75.01;100437.22;5018878;27;98646;-65
2023/08/30 02:37:25;;;;;;;3.58;1.80;;;;;;;19.57;74.64;100431.91;5028092;27;98864;-65
2023/08/30 02:39:51;;;;;;;2.53;1.80;;;;;;;19.64;74.30;100439.34;5026718;27;98712;-64
2023/08/30 02:42:18;;;;;;;5.70;2.05;;;;;;;19.49;74.67;100441.38;5025183;27;96844;-64
2023/08/30 02:44:44;;;;;;;2.47;1.65;;;;;;;19.59;74.55;100429.97;5020944;27;96922;-65
2023/08/30 02:47:11;;;;;;;2.53;1.67;;;;;;;19.61;74.49;100428.03;5023717;27;100553;-64
2023/08/30 02:49:37;;;;;;;5.65;1.98;;;;;;;19.62;74.20;100427.91;5021901;27;99116;-65
2023/08/30 02:52:04;;;;;;;3.03;1.70;;;;;;;19.60;74.73;100427.19;5025258;27;97130;-65
2023/08/30 02:54:32;;;;;;;2.60;1.85;;;;;;;19.69;74.90;100428.28;5021693;27;96751;-65
2023/08/30 02:56:58;;;;;;;4.63;2.20;;;;;;;19.55;75.23;100424.00;5028433;27;97637;-65
2023/08/30 02:59:25;;;;;;;3.50;2.40;;;;;;;19.59;75.18;100438.00;5022463;27;99032;-64
2023/08/30 03:01:52;;;;;;;3.65;2.13;;;;;;;19.59;75.69;100421.94;5024567;27;96862;-64
2023/08/30 03:04:19;;;;;;;2.30;2.10;;;;;;;19.56;75.28;100416.81;5013888;27;97249;-64
2023/08/30 03:06:45;;;;;;;3.30;2.17;;;;;;;19.59;75.21;100411.22;5026614;27;98945;-64
2023/08/30 03:09:12;;;;;;;3.47;2.22;;;;;;;19.37;75.61;100412.81;5020113;27;97963;-64
2023/08/30 03:11:39;;;;;;;2.42;1.92;;;;;;;19.27;76.39;100401.13;5025478;27;96747;-64
2023/08/30 03:14:06;;;;;;;5.60;2.30;;;;;;;19.21;76.74;100395.38;5022911;27;97692;-64
2023/08/30 03:16:32;;;;;;;2.28;2.08;;;;;;;19.22;76.30;100389.06;5030862;27;102130;-65
2023/08/30 03:19:00;;;;;;;4.82;2.63;;;;;;;19.11;77.08;100397.91;5021131;27;101234;-64
2023/08/30 03:21:26;;;;;;;3.95;2.60;;;;;;;19.05;77.65;100403.72;5024598;27;97096;-65
2023/08/30 03:23:53;;;;;;;4.75;3.00;;;;;;;19.06;77.33;100410.78;5029229;27;96830;-65
2023/08/30 03:26:19;;;;;;;5.10;2.78;;;;;;;19.04;77.90;100402.00;5030730;27;99362;-65
2023/08/30 03:28:47;;;;;;;3.53;2.33;;;;;;;18.90;78.39;100396.88;5030324;27;99067;-65
2023/08/30 03:31:14;;;;;;;3.13;2.75;;;;;;;18.92;78.68;100398.44;5031293;27;98267;-66
2023/08/30 03:33:42;;;;;;;3.38;2.80;;;;;;;18.98;78.13;100395.31;5029350;27;96958;-65
2023/08/30 03:36:09;;;;;;;5.50;3.40;;;;;;;18.97;78.34;100403.47;5026941;27;99490;-64
2023/08/30 03:38:36;;;;;;;3.47;3.15;;;;;;;18.73;79.25;100403.47;5027993;27;97832;-65
2023/08/30 03:41:03;;;;;;;3.28;2.60;;;;;;;18.77;79.78;100410.34;5028822;27;96695;-65
2023/08/30 03:43:29;;;;;;;3.55;3.25;;;;;;;18.53;81.25;100412.94;5028327;27;99034;-64
2023/08/30 03:45:57;;;;;;;3.35;3.05;;;;;;;18.43;81.54;100411.06;5029257;27;99467;-66
2023/08/30 03:48:24;;;;;;;4.97;3.40;;;;;;;18.72;80.60;100409.78;5020843;27;97810;-66
2023/08/30 03:50:50;;;;;;;6.25;3.30;;;;;;;18.69;80.28;100410.03;5026601;27;97261;-65
2023/08/30 03:53:16;;;;;;;3.60;3.00;;;;;;;18.80;79.76;100422.63;5023203;27;98007;-66
2023/08/30 03:55:43;;;;;;;5.78;3.13;;;;;;;18.81;79.51;100424.31;5029435;27;97939;-64
2023/08/30 03:58:09;;;;;;;5.20;3.30;;;;;;;18.70;80.20;100426.00;5030589;27;99097;-65
2023/08/30 04:00:40;;;;;;;5.15;3.42;;;;;;;18.88;79.19;100420.22;5029874;27;97383;-65
2023/08/30 04:03:09;;;;;;;6.30;3.10;;;;;;;18.95;78.69;100418.78;5026001;27;99216;-64
2023/08/30 04:05:36;;;;;;;4.03;2.95;;;;;;;18.82;79.21;100412.66;5019994;27;98976;-65
2023/08/30 04:08:04;;;;;;;3.60;3.03;;;;;;;18.81;78.88;100421.66;5027566;27;99108;-65
2023/08/30 04:10:34;;;;;;;4.68;3.03;;;;;;;18.97;78.49;100412.34;5025797;27;96736;-63
2023/08/30 04:13:01;;;;;;;5.90;3.47;;;;;;;19.01;78.41;100404.94;5025535;27;98989;-64
2023/08/30 04:15:27;;;;;;;4.80;2.83;;;;;;;18.87;78.92;100408.66;5017172;27;99120;-65
2023/08/30 04:17:54;;;;;;;5.20;2.75;;;;;;;19.00;77.74;100404.09;5026535;27;99660;-64
2023/08/30 04:20:22;;;;;;;7.40;3.50;;;;;;;19.35;77.27;100417.47;5021721;27;96694;-65
2023/08/30 04:22:53;;;;;;;6.40;3.22;;;;;;;19.38;76.56;100417.22;5029038;27;96853;-66
2023/08/30 04:25:19;;;;;;;3.45;2.95;;;;;;;19.56;75.63;100416.81;5024306;27;99717;-64
2023/08/30 04:27:46;;;;;;;5.03;3.22;;;;;;;19.52;75.79;100420.69;5028386;27;100675;-66
2023/08/30 04:30:13;;;;;;;3.80;3.50;;;;;;;19.56;75.00;100419.50;5028504;27;97214;-65
2023/08/30 04:32:40;;;;;;;3.85;3.42;;;;;;;19.63;74.69;100423.38;5026430;27;98089;-65
2023/08/30 04:35:13;;;;;;;5.75;3.25;;;;;;;19.67;74.74;100424.88;5029396;27;98901;-66
2023/08/30 04:37:42;;;;;;;7.65;3.40;;;;;;;19.53;75.15;100430.44;5021701;27;97556;-64
2023/08/30 04:40:10;;;;;;;3.38;3.08;;;;;;;19.58;74.84;100433.63;5027787;27;96837;-64
2023/08/30 04:42:36;;;;;;;5.07;3.30;;;;;;;19.64;74.82;100431.31;5018108;27;97024;-65
2023/08/30 04:45:03;;;;;;;5.25;2.88;;;;;;;19.54;75.48;100442.88;5027486;27;99142;-64
2023/08/30 04:47:31;;;;;;;4.22;2.95;;;;;;;19.43;75.91;100436.47;5024157;27;98996;-64
2023/08/30 04:49:57;;;;;;;6.63;3.63;;;;;;;19.27;77.26;100444.00;5027121;27;96879;-65
2023/08/30 04:52:24;;;;;;;4.78;3.55;;;;;;;19.34;77.38;100453.28;5024899;27;97274;-65
2023/08/30 04:54:53;;;;;;;3.15;2.85;;;;;;;19.28;77.10;100451.06;5027116;27;97730;-65
2023/08/30 04:57:20;;;;;;;7.25;3.35;;;;;;;19.36;76.39;100440.59;5026815;27;100047;-64
2023/08/30 04:59:47;;;;;;;5.40;3.60;;;;;;;19.45;76.98;100439.03;5024701;27;98858;-65
2023/08/30 05:02:14;;;;;;;2.83;2.63;;;;;;;19.47;76.29;100438.00;5023050;27;97978;-65
2023/08/30 05:04:40;;;;;;;12.40;3.47;;;;;;;19.54;76.29;100443.72;5026587;27;99009;-65
2023/08/30 05:07:07;;;;;;;8.77;5.10;;;;;;;19.60;75.99;100442.41;5017723;27;99201;-65
2023/08/30 05:09:34;;;;;;;7.80;4.07;;;;;;;19.54;76.63;100457.13;5024880;27;100829;-65
2023/08/30 05:12:03;;;;;;;4.22;3.08;;;;;;;19.31;77.51;100453.50;5029107;27;96799;-65
2023/08/30 05:14:29;;;;;;;4.78;2.70;;;;;;;19.66;76.08;100452.63;5025837;27;98889;-65
2023/08/30 05:16:55;;;;;;;7.55;3.42;;;;;;;19.84;75.91;100444.00;5023346;27;98845;-64
2023/08/30 05:19:22;;;;;;;3.13;2.83;;;;;;;19.83;75.28;100444.13;5019026;27;96879;-65
2023/08/30 05:21:51;;;;;;;4.57;3.28;;;;;;;19.90;75.35;100450.72;5023002;27;97012;-65
2023/08/30 05:24:17;;;;;;;8.20;3.00;;;;;;;19.89;75.11;100449.00;5024532;27;101465;-65
2023/08/30 05:26:46;;;;;;;4.30;2.78;;;;;;;20.04;74.02;100447.78;5021896;27;98933;-64
2023/08/30 05:29:15;;;;;;;5.82;2.85;;;;;;;19.92;74.83;100448.78;5025648;27;96802;-64
2023/08/30 05:31:41;;;;;;;4.60;2.90;;;;;;;20.33;73.62;100447.34;5027731;27;96922;-65
2023/08/30 05:34:08;;;;;;;4.70;2.75;;;;;;;20.32;73.16;100445.59;5024613;27;99790;-65
2023/08/30 05:36:34;;;;;;;3.00;2.50;;;;;;;20.35;72.70;100448.06;5018311;27;97589;-65
2023/08/30 05:39:00;;;;;;;5.50;2.75;;;;;;;20.62;72.41;100453.84;5018925;27;99192;-64
2023/08/30 05:41:27;;;;;;;3.53;2.78;;;;;;;20.53;72.65;100441.22;5026746;27;96846;-65
2023/08/30 05:43:54;;;;;;;5.63;2.65;;;;;;;20.51;71.68;100435.09;5028936;27;98913;-66
2023/08/30 05:46:22;;;;;;;5.35;2.90;;;;;;;20.33;72.03;100433.91;5017021;27;98880;-65
2023/08/30 05:48:49;;;;;;;6.55;2.50;;;;;;;20.47;71.58;100428.28;5024729;27;96972;-65
2023/08/30 05:51:16;;;;;;;11.60;4.57;;;;;;;20.58;70.62;100439.84;5020713;27;97975;-66
2023/08/30 05:53:42;;;;;;;6.70;3.10;;;;;;;20.49;71.34;100429.00;5028939;27;101584;-66
2023/08/30 05:56:08;;;;;;;4.57;2.88;;;;;;;20.49;72.63;100437.06;5026585;27;99155;-65
2023/08/30 05:58:35;;;;;;;4.38;2.78;;;;;;;20.72;70.81;100437.88;5020221;27;97744;-65
2023/08/30 06:01:02;;;;;;;5.80;2.50;;;;;;;20.78;70.60;100435.53;5024530;27;96987;-65
2023/08/30 06:03:30;;;;;;;5.07;2.85;;;;;;;20.68;70.81;100434.56;5028379;27;98911;-65
2023/08/30 06:05:57;;;;;;;4.90;3.38;;;;;;;20.85;70.21;100438.56;5026926;27;99233;-65
2023/08/30 06:08:23;;;;;;;4.80;3.05;;;;;;;20.92;69.30;100437.94;5021157;27;97638;-66
2023/08/30 06:10:49;;;;;;;10.80;3.90;;;;;;;20.91;69.99;100428.16;5024675;27;98551;-65
2023/08/30 06:13:16;;;;;;;4.90;3.20;;;;;;;21.08;69.25;100426.72;5028425;27;100561;-66
2023/08/30 06:15:44;;;;;;;5.35;3.28;;;;;;;20.78;69.75;100426.63;5024573;27;97621;-65
2023/08/30 06:18:11;;;;;;;3.85;3.10;;;;;;;20.59;69.96;100427.28;5018296;27;96935;-65
2023/08/30 06:20:41;;;;;;;5.05;2.83;;;;;;;20.63;69.70;100424.22;5023915;27;97622;-66
2023/08/30 06:23:07;;;;;;;6.32;3.50;;;;;;;20.68;70.04;100421.13;5028914;27;100590;-65
2023/08/30 06:25:34;;;;;;;6.90;2.88;;;;;;;20.78;70.87;100426.63;5026070;27;99316;-65
2023/08/30 06:28:02;;;;;;;6.55;3.22;;;;;;;20.88;70.83;100416.81;5026659;27;96792;-66
2023/08/30 06:30:29;;;;;;;4.72;3.45;;;;;;;21.01;69.48;100420.16;5029264;27;96885;-66
2023/08/30 06:32:56;;;;;;;5.68;3.55;;;;;;;21.26;68.29;100421.69;5028798;27;98825;-65
2023/08/30 06:35:22;;;;;;;3.63;3.22;;;;;;;21.36;68.05;100412.69;5021698;27;99187;-65
2023/08/30 06:37:50;;;;;;;11.32;5.78;;;;;;;21.47;67.50;100418.00;5023108;27;96797;-65
2023/08/30 06:40:17;;;;;;;6.38;3.53;;;;;;;21.50;67.15;100421.41;5022998;27;97586;-65
2023/08/30 06:42:43;;;;;;;8.45;5.68;;;;;;;21.59;66.15;100424.19;5029453;27;99107;-64
2023/08/30 06:45:10;;;;;;;6.20;3.88;;;;;;;21.48;66.26;100421.53;5019933;27;99509;-65
2023/08/30 06:47:36;;;;;;;9.85;3.90;;;;;;;21.22;66.25;100422.91;5022541;27;96874;-65
2023/08/30 06:50:03;;;;;;;6.07;3.45;;;;;;;21.50;66.49;100419.59;5028408;27;96778;-65
2023/08/30 06:52:30;;;;;;;11.98;4.47;;;;;;;21.58;66.62;100411.72;5022733;27;99027;-65
2023/08/30 06:54:58;;;;;;;3.55;3.00;;;;;;;21.63;66.61;100417.53;5029928;27;100551;-65
2023/08/30 06:57:24;;;;;;;6.97;4.35;;;;;;;21.93;64.64;100415.84;5022815;27;97650;-66
2023/08/30 06:59:51;;;;;;;4.45;3.45;;;;;;;21.75;65.62;100419.16;5025748;27;96861;-65
2023/08/30 07:02:18;;;;;;;7.45;3.70;;;;;;;21.63;66.54;100409.47;5024878;27;100375;-65
2023/08/30 07:04:44;;;;;;;8.60;3.97;;;;;;;21.82;65.25;100414.94;5025199;27;100989;-65
2023/08/30 07:07:13;;;;;;;7.70;3.85;;;;;;;21.76;64.60;100415.50;5022500;27;96799;-65
2023/08/30 07:09:42;;;;;;;7.53;4.20;;;;;;;21.94;64.20;100412.16;5031526;27;96930;-70
2023/08/30 07:12:14;;;;;;;6.43;3.80;;;;;;;22.05;64.36;100412.97;5023504;27;99461;-64
2023/08/30 07:14:40;;;;;;;7.13;3.75;;;;;;;22.15;63.77;100411.16;5022259;27;99963;-65
2023/08/30 07:17:07;;;;;;;9.07;4.53;;;;;;;22.36;63.25;100419.16;5024785;27;97103;-65
2023/08/30 07:19:33;;;;;;;6.65;3.47;;;;;;;22.35;63.90;100416.59;5024033;27;101714;-65
2023/08/30 07:22:00;;;;;;;7.03;4.15;;;;;;;22.45;62.45;100414.81;5030136;27;99488;-66
2023/08/30 07:24:26;;;;;;;4.88;2.83;;;;;;;22.52;62.23;100414.09;5029368;27;97748;-65
2023/08/30 07:26:52;;;;;;;4.05;1.80;;;;;;;22.49;60.44;100418.91;5023331;27;96829;-65
2023/08/30 07:29:21;;;;;;;3.60;2.30;;;;;;;22.48;60.33;100417.19;5021696;27;97204;-65
2023/08/30 07:31:51;;;;;;;4.00;1.60;;;;;;;22.41;59.74;100408.81;5022992;27;97897;-65
2023/08/30 07:34:17;;;;;;;2.03;1.85;;;;;;;22.39;59.66;100413.50;5028139;27;97695;-65
2023/08/30 07:36:43;;;;;;;1.67;1.58;;;;;;;22.33;59.32;100414.03;5030741;27;97252;-65
2023/08/30 07:39:10;;;;;;;3.42;1.80;;;;;;;22.20;60.64;100416.13;5029380;27;97478;-65
2023/08/30 07:41:36;;;;;;;1.77;1.63;;;;;;;22.08;60.82;100407.31;5025895;27;99124;-68
2023/08/30 07:44:03;;;;;;;6.45;2.60;;;;;;;21.93;61.75;100411.31;5019589;27;98933;-65
2023/08/30 07:46:30;;;;;;;3.42;2.10;;;;;;;22.10;61.83;100413.41;5025347;27;98577;-64
2023/08/30 07:48:57;;;;;;;3.97;1.98;;;;;;;22.13;62.08;100406.88;5017329;27;99073;-64
2023/08/30 07:51:23;;;;;;;2.78;1.80;;;;;;;22.41;60.68;100419.59;5021669;27;99024;-64
2023/08/30 07:53:49;;;;;;;2.72;1.88;;;;;;;22.29;60.52;100422.53;5024411;27;99328;-64
2023/08/30 07:56:16;;;;;;;2.50;1.70;;;;;;;22.27;60.19;100425.34;5025246;27;98958;-66
2023/08/30 07:58:42;;;;;;;4.75;1.80;;;;;;;22.30;60.82;100419.72;5023445;27;96818;-66
2023/08/30 08:01:09;;;;;;;1.92;1.55;;;;;;;22.26;60.46;100420.97;5024238;27;99373;-66
2023/08/30 08:03:37;;;;;;;7.32;1.98;;;;;;;22.61;58.21;100424.03;5018497;27;98876;-66
2023/08/30 08:06:03;;;;;;;6.72;1.70;;;;;;;22.54;57.97;100422.03;5020626;27;98090;-66
2023/08/30 08:08:30;;;;;;;1.58;1.48;;;;;;;22.65;56.81;100416.50;5025689;27;99007;-65
2023/08/30 08:10:56;;;;;;;2.30;2.10;;;;;;;22.95;56.08;100410.22;5022231;27;99343;-64
2023/08/30 08:13:23;;;;;;;2.50;1.50;;;;;;;22.85;55.94;100418.28;5022136;27;99795;-65
2023/08/30 08:15:49;;;;;;;3.50;1.73;;;;;;;22.98;55.17;100415.28;5019890;27;97894;-66
2023/08/30 08:18:15;;;;;;;3.47;1.63;;;;;;;22.69;57.05;100422.50;5024366;27;97165;-66
2023/08/30 08:20:44;;;;;;;2.90;1.60;;;;;;;22.95;56.54;100418.28;5021665;27;99049;-66
2023/08/30 08:23:10;;;;;;;2.95;1.90;;;;;;;22.93;56.11;100412.19;5020569;27;98839;-65
2023/08/30 08:25:36;;;;;;;5.07;2.03;;;;;;;22.80;56.30;100431.31;5022086;27;96798;-67
2023/08/30 08:28:03;;;;;;;2.70;1.80;;;;;;;23.18;55.69;100427.78;5019895;27;98012;-65
2023/08/30 08:30:37;;;;;;;5.82;1.90;;;;;;;23.10;55.49;100418.72;5017093;27;98950;-66
2023/08/30 08:33:03;;;;;;;3.40;2.47;;;;;;;23.16;54.64;100421.69;5026599;27;99974;-66
2023/08/30 08:35:30;;;;;;;3.63;1.58;;;;;;;23.20;54.93;100420.41;5025803;27;97258;-65
2023/08/30 08:38:04;;;;;;;4.80;2.45;;;;;;;23.63;53.85;100417.22;5025119;27;97043;-66
2023/08/30 08:40:30;;;;;;;2.10;1.88;;;;;;;23.75;54.17;100416.09;5012482;27;97668;-64
2023/08/30 08:42:57;;;;;;;7.63;1.80;;;;;;;24.09;52.79;100412.84;5020528;27;98915;-64
2023/08/30 08:45:28;;;;;;;3.45;1.90;;;;;;;23.88;52.56;100420.31;5023863;27;98078;-64
2023/08/30 08:47:55;;;;;;;4.85;1.60;;;;;;;24.03;52.66;100414.25;5016538;27;97956;-64
2023/08/30 08:50:22;;;;;;;6.03;1.88;;;;;;;23.96;52.61;100413.16;5022440;27;99035;-65
2023/08/30 08:52:49;;;;;;;5.13;1.92;;;;;;;23.77;51.94;100411.38;5022504;27;99015;-65
2023/08/30 08:55:18;;;;;;;4.38;1.95;;;;;;;24.32;51.89;100411.47;5017817;27;96875;-64
2023/08/30 08:57:46;;;;;;;4.00;1.67;;;;;;;24.08;52.51;100411.13;5019563;27;97034;-65
2023/08/30 09:00:13;;;;;;;3.80;1.90;;;;;;;23.94;52.18;100408.91;5023267;27;98823;-65
2023/08/30 09:02:41;;;;;;;3.10;1.95;;;;;;;24.19;51.78;100401.03;5023656;27;99241;-64
2023/08/30 09:05:08;;;;;;;6.40;2.08;;;;;;;23.98;51.89;100404.91;5016811;27;97226;-64
2023/08/30 09:07:36;;;;;;;3.03;1.98;;;;;;;24.09;52.13;100402.88;5021030;27;98131;-64
2023/08/30 09:10:03;;;;;;;4.40;2.13;;;;;;;23.70;52.06;100402.16;5019498;27;99193;-64
2023/08/30 09:12:36;;;;;;;5.32;3.45;;;;;;;23.79;52.61;100405.84;5023151;27;98825;-64
2023/08/30 09:15:04;;;;;;;3.80;1.85;;;;;;;23.68;51.92;100408.72;5021328;27;98213;-65
2023/08/30 09:17:37;;;;;;;3.88;2.15;;;;;;;24.05;50.67;100398.78;5019669;27;97392;-66
2023/08/30 09:20:08;;;;;;;4.72;2.58;;;;;;;23.91;49.92;100398.41;5023017;27;98877;-64
2023/08/30 09:22:39;;;;;;;3.63;1.77;;;;;;;23.85;50.76;100397.16;5018570;27;97598;-66
2023/08/30 09:25:17;;;;;;;4.72;2.50;;;;;;;24.01;51.70;100399.25;5015945;27;97884;-65
2023/08/30 09:27:45;;;;;;;4.40;1.45;;;;;;;23.88;51.46;100391.47;5020583;27;97420;-65
2023/08/30 09:30:12;;;;;;;4.18;2.30;;;;;;;24.08;50.99;100390.41;5018872;27;99215;-65
2023/08/30 09:32:41;;;;;;;5.75;1.75;;;;;;;24.05;51.04;100396.09;5023395;27;98813;-66
2023/08/30 09:35:08;;;;;;;4.28;1.52;;;;;;;24.02;51.31;100395.53;5020624;27;97235;-66
2023/08/30 09:37:34;;;;;;;2.10;1.50;;;;;;;24.16;51.46;100390.47;5018960;27;97293;-66
2023/08/30 09:40:01;;;;;;;6.47;2.20;;;;;;;24.25;50.55;100387.91;5025861;27;99239;-66
2023/08/30 09:42:29;;;;;;;2.85;1.70;;;;;;;24.17;51.08;100389.47;5018193;27;98991;-66
2023/08/30 09:44:57;;;;;;;4.63;1.30;;;;;;;24.54;49.73;100388.59;5021454;27;97636;-66
2023/08/30 09:47:25;;;;;;;5.53;2.85;;;;;;;25.13;49.07;100384.47;5015344;27;98484;-66
2023/08/30 09:49:55;;;;;;;43.60;28.58;;;;;;;25.19;46.94;100387.38;5021432;27;99221;-65
2023/08/30 09:52:24;;;;;;;5.32;2.33;;;;;;;25.17;47.07;100383.13;5023694;27;97605;-65
2023/08/30 09:54:52;;;;;;;3.70;1.65;;;;;;;24.87;47.09;100385.22;5022208;27;97958;-64
2023/08/30 09:57:19;;;;;;;4.10;1.95;;;;;;;24.99;45.09;100380.47;5018221;27;96773;-65
2023/08/30 09:59:46;;;;;;;2.20;1.30;;;;;;;24.77;44.99;100380.88;5019479;27;99733;-65
2023/08/30 10:02:14;;;;;;;3.15;1.42;;;;;;;25.17;45.01;100384.00;5022198;27;99321;-65
2023/08/30 10:04:41;;;;;;;6.35;2.05;;;;;;;25.55;43.82;100369.22;5016035;27;101290;-65
2023/08/30 10:07:07;;;;;;;6.85;1.70;;;;;;;25.85;42.39;100380.59;5019362;27;96955;-65
2023/08/30 10:09:34;;;;;;;3.83;1.35;;;;;;;25.47;44.16;100374.56;5019337;27;98987;-64
2023/08/30 10:12:01;;;;;;;8.10;2.10;;;;;;;25.56;45.17;100364.66;5022638;27;98827;-64
2023/08/30 10:14:28;;;;;;;7.28;2.10;;;;;;;25.65;45.52;100367.28;5023581;27;97191;-65
2023/08/30 10:17:02;;;;;;;4.68;1.90;;;;;;;25.61;44.63;100367.75;5021911;27;97470;-66
2023/08/30 10:19:30;;;;;;;4.13;2.17;;;;;;;25.56;44.37;100357.38;5018583;27;99306;-66
2023/08/30 10:22:03;;;;;;;3.85;1.40;;;;;;;25.47;43.16;100362.91;5022598;27;99379;-65
2023/08/30 10:24:32;;;;;;;2.30;1.20;;;;;;;25.74;42.31;100355.47;5024081;27;96980;-66
2023/08/30 10:27:01;;;;;;;4.50;1.50;;;;;;;25.60;43.08;100355.25;5022163;27;97630;-65
2023/08/30 10:29:29;;;;;;;4.55;1.15;;;;;;;25.64;42.12;100354.78;5023854;27;97631;-65
2023/08/30 10:31:55;;;;;;;2.97;1.38;;;;;;;25.72;42.59;100357.53;5016545;27;99055;-65
2023/08/30 10:34:21;;;;;;;5.18;1.38;;;;;;;26.12;42.31;100366.84;5015261;27;97149;-65
2023/08/30 10:37:00;;;;;;;4.43;1.30;;;;;;;26.10;41.59;100358.03;5017934;27;97384;-65
2023/08/30 10:39:35;;;;;;;3.45;1.30;;;;;;;25.88;41.24;100364.84;5013036;27;98705;-65
2023/08/30 10:42:01;;;;;;;3.83;1.60;;;;;;;25.72;40.93;100371.06;5018538;27;97800;-65
2023/08/30 10:44:28;;;;;;;4.53;1.95;;;;;;;25.59;41.97;100372.50;5020897;27;97427;-65
2023/08/30 10:46:55;;;;;;;2.17;1.20;;;;;;;25.84;41.17;100370.78;5018308;27;96944;-64
2023/08/30 10:49:23;;;;;;;5.40;1.75;;;;;;;25.94;41.15;100368.78;5018751;27;101774;-65
2023/08/30 10:51:58;;;;;;;2.25;1.30;;;;;;;26.13;41.06;100366.66;5013264;27;99183;-64
2023/08/30 10:54:25;;;;;;;23.08;2.95;;;;;;;26.19;41.75;100360.59;5021045;27;97429;-64
2023/08/30 10:56:58;;;;;;;6.30;1.60;;;;;;;26.21;41.63;100363.13;5020012;27;96972;-65
2023/08/30 10:59:25;;;;;;;2.55;1.40;;;;;;;26.36;41.74;100369.66;5016533;27;99028;-65
2023/08/30 11:01:52;;;;;;;1.92;1.52;;;;;;;26.41;40.55;100375.41;5022085;27;99126;-66
2023/08/30 11:04:21;;;;;;;1.50;1.25;;;;;;;26.31;40.79;100380.16;5021910;27;97687;-65
2023/08/30 11:06:49;;;;;;;2.67;1.27;;;;;;;26.50;40.60;100374.44;5020652;27;97626;-65
2023/08/30 11:09:18;;;;;;;1.60;1.08;;;;;;;26.61;40.54;100383.25;5016806;27;99536;-65
2023/08/30 11:11:45;;;;;;;2.53;1.45;;;;;;;26.46;40.31;100386.59;5019662;27;99003;-65
2023/08/30 11:14:12;;;;;;;2.67;1.20;;;;;;;26.51;40.08;100376.16;5017871;27;98861;-65
2023/08/30 11:16:39;;;;;;;1.08;0.98;;;;;;;26.63;40.11;100367.69;5020995;27;97837;-65
2023/08/30 11:19:07;;;;;;;3.00;1.88;;;;;;;26.27;40.98;100373.34;5020450;27;99071;-64
2023/08/30 11:21:35;;;;;;;2.10;1.05;;;;;;;26.48;40.57;100379.16;5019590;27;97779;-65
2023/08/30 11:24:03;;;;;;;3.10;1.17;;;;;;;26.75;40.53;100371.78;5024246;27;97173;-65
2023/08/30 11:26:30;;;;;;;1.67;0.88;;;;;;;26.83;39.73;100371.78;5018158;27;97825;-65